sensor_id;sensor_type;location;lat;lon;timestamp;pressure;altitude;pressure_sealevel;temperature;humidity
3122;BME280;1571;52.524;14.104;2023-07-31T00:01:12;100566.06;;;16.24;90.88
3122;BME280;1571;52.524;14.104;2023-07-31T00:03:40;100566.69;;;16.07;89.80
3122;BME280;1571;52.524;14.104;2023-07-31T00:06:08;100573.19;;;16.14;90.15
3122;BME280;1571;52.524;14.104;2023-07-31T00:08:37;100564.00;;;16.07;90.78
3122;BME280;1571;52.524;14.104;2023-07-31T00:11:06;100561.63;;;16.13;90.41
3122;BME280;1571;52.524;14.104;2023-07-31T00:13:34;100548.25;;;16.13;90.84
3122;BME280;1571;52.524;14.104;2023-07-31T00:16:03;100547.94;;;16.07;92.01
3122;BME280;1571;52.524;14.104;2023-07-31T00:18:31;100547.53;;;16.11;92.37
3122;BME280;1571;52.524;14.104;2023-07-31T00:21:00;100547.66;;;16.10;91.90
3122;BME280;1571;52.524;14.104;2023-07-31T00:23:28;100544.56;;;16.05;92.13
3122;BME280;1571;52.524;14.104;2023-07-31T00:25:56;100547.94;;;16.07;91.76
3122;BME280;1571;52.524;14.104;2023-07-31T00:28:26;100532.06;;;16.15;92.05
3122;BME280;1571;52.524;14.104;2023-07-31T00:30:56;100535.28;;;16.09;92.23
3122;BME280;1571;52.524;14.104;2023-07-31T00:33:25;100542.59;;;16.07;92.58
3122;BME280;1571;52.524;14.104;2023-07-31T00:35:54;100542.91;;;16.13;93.00
3122;BME280;1571;52.524;14.104;2023-07-31T00:38:22;100534.06;;;15.92;93.79
3122;BME280;1571;52.524;14.104;2023-07-31T00:40:50;100534.66;;;15.95;93.85
3122;BME280;1571;52.524;14.104;2023-07-31T00:43:19;100526.69;;;15.74;94.06
3122;BME280;1571;52.524;14.104;2023-07-31T00:45:49;100529.41;;;15.84;94.76
3122;BME280;1571;52.524;14.104;2023-07-31T00:48:17;100524.50;;;15.89;94.63
3122;BME280;1571;52.524;14.104;2023-07-31T00:50:45;100521.41;;;15.94;94.82
3122;BME280;1571;52.524;14.104;2023-07-31T00:53:14;100523.97;;;15.95;94.68
3122;BME280;1571;52.524;14.104;2023-07-31T00:55:43;100510.97;;;15.81;94.28
3122;BME280;1571;52.524;14.104;2023-07-31T00:58:13;100509.81;;;15.74;94.55
3122;BME280;1571;52.524;14.104;2023-07-31T01:00:41;100504.28;;;15.75;95.14
3122;BME280;1571;52.524;14.104;2023-07-31T01:03:11;100509.94;;;15.72;95.03
3122;BME280;1571;52.524;14.104;2023-07-31T01:05:49;100516.31;;;15.81;95.18
3122;BME280;1571;52.524;14.104;2023-07-31T01:08:26;100503.84;;;15.70;95.60
3122;BME280;1571;52.524;14.104;2023-07-31T01:10:59;100505.59;;;15.81;96.15
3122;BME280;1571;52.524;14.104;2023-07-31T01:13:28;100508.34;;;15.70;96.58
3122;BME280;1571;52.524;14.104;2023-07-31T01:15:57;100518.13;;;15.59;96.58
3122;BME280;1571;52.524;14.104;2023-07-31T01:18:28;100503.53;;;15.64;97.43
3122;BME280;1571;52.524;14.104;2023-07-31T01:21:03;100505.28;;;15.74;97.61
3122;BME280;1571;52.524;14.104;2023-07-31T01:23:55;100502.66;;;15.84;97.75
3122;BME280;1571;52.524;14.104;2023-07-31T01:26:33;100508.09;;;15.73;97.88
3122;BME280;1571;52.524;14.104;2023-07-31T01:29:07;100505.19;;;15.65;98.11
3122;BME280;1571;52.524;14.104;2023-07-31T01:31:39;100493.91;;;15.82;98.90
3122;BME280;1571;52.524;14.104;2023-07-31T01:34:08;100486.06;;;15.69;99.25
3122;BME280;1571;52.524;14.104;2023-07-31T01:36:38;100482.00;;;15.65;98.83
3122;BME280;1571;52.524;14.104;2023-07-31T01:39:07;100485.09;;;15.70;99.16
3122;BME280;1571;52.524;14.104;2023-07-31T01:41:36;100488.06;;;15.67;99.76
3122;BME280;1571;52.524;14.104;2023-07-31T01:44:05;100493.09;;;15.60;100.00
3122;BME280;1571;52.524;14.104;2023-07-31T01:46:34;100492.00;;;15.42;99.76
3122;BME280;1571;52.524;14.104;2023-07-31T01:49:02;100494.16;;;15.48;100.00
3122;BME280;1571;52.524;14.104;2023-07-31T01:51:32;100500.94;;;15.52;99.87
3122;BME280;1571;52.524;14.104;2023-07-31T01:54:01;100501.97;;;15.40;99.86
3122;BME280;1571;52.524;14.104;2023-07-31T01:56:29;100498.53;;;15.49;99.15
3122;BME280;1571;52.524;14.104;2023-07-31T01:59:00;100499.50;;;15.48;99.44
3122;BME280;1571;52.524;14.104;2023-07-31T02:01:28;100478.53;;;15.53;98.98
3122;BME280;1571;52.524;14.104;2023-07-31T02:03:56;100466.91;;;15.64;99.26
3122;BME280;1571;52.524;14.104;2023-07-31T02:06:25;100456.91;;;15.66;99.15
3122;BME280;1571;52.524;14.104;2023-07-31T02:08:54;100465.53;;;15.70;99.59
3122;BME280;1571;52.524;14.104;2023-07-31T02:11:22;100461.28;;;15.67;99.90
3122;BME280;1571;52.524;14.104;2023-07-31T02:13:50;100472.34;;;15.53;100.00
3122;BME280;1571;52.524;14.104;2023-07-31T02:16:20;100473.06;;;15.55;100.00
3122;BME280;1571;52.524;14.104;2023-07-31T02:18:48;100469.31;;;15.67;100.00
3122;BME280;1571;52.524;14.104;2023-07-31T02:21:17;100471.06;;;15.47;100.00
3122;BME280;1571;52.524;14.104;2023-07-31T02:23:45;100472.31;;;15.43;100.00
3122;BME280;1571;52.524;14.104;2023-07-31T02:26:14;100468.47;;;15.36;100.00
3122;BME280;1571;52.524;14.104;2023-07-31T02:28:41;100471.00;;;15.68;100.00
3122;BME280;1571;52.524;14.104;2023-07-31T02:31:11;100469.44;;;15.56;100.00
3122;BME280;1571;52.524;14.104;2023-07-31T02:33:41;100462.13;;;15.37;100.00
3122;BME280;1571;52.524;14.104;2023-07-31T02:36:10;100471.47;;;15.22;100.00
3122;BME280;1571;52.524;14.104;2023-07-31T02:38:38;100457.28;;;15.21;100.00
3122;BME280;1571;52.524;14.104;2023-07-31T02:41:06;100459.06;;;15.41;100.00
3122;BME280;1571;52.524;14.104;2023-07-31T02:43:35;100458.22;;;15.41;100.00
3122;BME280;1571;52.524;14.104;2023-07-31T02:46:03;100457.28;;;15.52;100.00
3122;BME280;1571;52.524;14.104;2023-07-31T02:48:32;100451.03;;;15.41;100.00
3122;BME280;1571;52.524;14.104;2023-07-31T02:51:01;100449.69;;;15.57;100.00
3122;BME280;1571;52.524;14.104;2023-07-31T02:53:29;100443.50;;;15.56;100.00
3122;BME280;1571;52.524;14.104;2023-07-31T02:55:58;100441.09;;;15.53;100.00
3122;BME280;1571;52.524;14.104;2023-07-31T02:58:26;100441.91;;;15.44;100.00
3122;BME280;1571;52.524;14.104;2023-07-31T03:00:54;100435.81;;;15.42;100.00
3122;BME280;1571;52.524;14.104;2023-07-31T03:03:23;100444.97;;;15.39;100.00
3122;BME280;1571;52.524;14.104;2023-07-31T03:05:51;100451.44;;;15.37;100.00
3122;BME280;1571;52.524;14.104;2023-07-31T03:08:21;100437.25;;;15.46;100.00
3122;BME280;1571;52.524;14.104;2023-07-31T03:10:49;100446.03;;;15.58;100.00
3122;BME280;1571;52.524;14.104;2023-07-31T03:13:17;100448.81;;;15.47;100.00
3122;BME280;1571;52.524;14.104;2023-07-31T03:15:46;100448.13;;;15.24;100.00
3122;BME280;1571;52.524;14.104;2023-07-31T03:18:14;100448.97;;;15.45;100.00
3122;BME280;1571;52.524;14.104;2023-07-31T03:20:43;100443.31;;;15.17;100.00
3122;BME280;1571;52.524;14.104;2023-07-31T03:23:11;100443.91;;;15.21;100.00
3122;BME280;1571;52.524;14.104;2023-07-31T03:25:41;100446.00;;;15.48;100.00
3122;BME280;1571;52.524;14.104;2023-07-31T03:28:23;100439.94;;;15.46;100.00
3122;BME280;1571;52.524;14.104;2023-07-31T03:30:52;100441.97;;;15.33;100.00
3122;BME280;1571;52.524;14.104;2023-07-31T03:33:20;100442.44;;;15.38;100.00
3122;BME280;1571;52.524;14.104;2023-07-31T03:35:50;100441.75;;;15.36;100.00
3122;BME280;1571;52.524;14.104;2023-07-31T03:38:19;100444.22;;;15.28;100.00
3122;BME280;1571;52.524;14.104;2023-07-31T03:40:49;100444.94;;;15.30;100.00
3122;BME280;1571;52.524;14.104;2023-07-31T03:43:17;100443.38;;;15.27;100.00
3122;BME280;1571;52.524;14.104;2023-07-31T03:45:45;100446.50;;;15.32;100.00
3122;BME280;1571;52.524;14.104;2023-07-31T03:48:26;100453.69;;;15.32;100.00
3122;BME280;1571;52.524;14.104;2023-07-31T03:50:54;100456.84;;;15.16;100.00
3122;BME280;1571;52.524;14.104;2023-07-31T03:53:23;100451.81;;;15.23;100.00
3122;BME280;1571;52.524;14.104;2023-07-31T03:55:53;100462.81;;;15.29;100.00
3122;BME280;1571;52.524;14.104;2023-07-31T03:58:21;100457.16;;;15.23;100.00
3122;BME280;1571;52.524;14.104;2023-07-31T04:00:49;100462.69;;;15.10;100.00
3122;BME280;1571;52.524;14.104;2023-07-31T04:03:18;100461.59;;;15.12;100.00
3122;BME280;1571;52.524;14.104;2023-07-31T04:05:46;100465.09;;;15.13;100.00
3122;BME280;1571;52.524;14.104;2023-07-31T04:08:14;100462.66;;;15.00;100.00
3122;BME280;1571;52.524;14.104;2023-07-31T04:10:42;100459.81;;;15.02;100.00
3122;BME280;1571;52.524;14.104;2023-07-31T04:13:12;100451.28;;;15.08;100.00
3122;BME280;1571;52.524;14.104;2023-07-31T04:15:41;100444.97;;;15.09;100.00
3122;BME280;1571;52.524;14.104;2023-07-31T04:18:09;100436.22;;;14.86;100.00
3122;BME280;1571;52.524;14.104;2023-07-31T04:20:37;100441.84;;;15.04;100.00
3122;BME280;1571;52.524;14.104;2023-07-31T04:23:07;100433.25;;;15.00;100.00
3122;BME280;1571;52.524;14.104;2023-07-31T04:25:35;100438.88;;;15.28;100.00
3122;BME280;1571;52.524;14.104;2023-07-31T04:28:04;100435.28;;;15.17;100.00
3122;BME280;1571;52.524;14.104;2023-07-31T04:30:34;100435.34;;;15.27;100.00
3122;BME280;1571;52.524;14.104;2023-07-31T04:33:03;100432.94;;;15.24;100.00
3122;BME280;1571;52.524;14.104;2023-07-31T04:35:32;100438.34;;;15.34;100.00
3122;BME280;1571;52.524;14.104;2023-07-31T04:38:00;100426.22;;;15.30;100.00
3122;BME280;1571;52.524;14.104;2023-07-31T04:40:28;100419.16;;;15.29;100.00
3122;BME280;1571;52.524;14.104;2023-07-31T04:42:57;100426.75;;;15.24;100.00
3122;BME280;1571;52.524;14.104;2023-07-31T04:45:25;100424.06;;;15.24;100.00
3122;BME280;1571;52.524;14.104;2023-07-31T04:47:55;100422.31;;;15.44;100.00
3122;BME280;1571;52.524;14.104;2023-07-31T04:50:23;100433.44;;;15.39;100.00
3122;BME280;1571;52.524;14.104;2023-07-31T04:52:51;100424.41;;;15.40;100.00
3122;BME280;1571;52.524;14.104;2023-07-31T04:55:20;100436.09;;;15.39;100.00
3122;BME280;1571;52.524;14.104;2023-07-31T04:57:48;100422.22;;;15.55;100.00
3122;BME280;1571;52.524;14.104;2023-07-31T05:00:17;100425.81;;;15.34;100.00
3122;BME280;1571;52.524;14.104;2023-07-31T05:02:45;100420.50;;;15.44;100.00
3122;BME280;1571;52.524;14.104;2023-07-31T05:05:15;100425.03;;;15.53;100.00
3122;BME280;1571;52.524;14.104;2023-07-31T05:07:43;100420.41;;;15.55;100.00
3122;BME280;1571;52.524;14.104;2023-07-31T05:10:12;100419.78;;;15.42;100.00
3122;BME280;1571;52.524;14.104;2023-07-31T05:12:40;100416.44;;;15.50;100.00
3122;BME280;1571;52.524;14.104;2023-07-31T05:15:09;100409.16;;;15.61;100.00
3122;BME280;1571;52.524;14.104;2023-07-31T05:17:37;100418.72;;;15.64;100.00
3122;BME280;1571;52.524;14.104;2023-07-31T05:20:07;100405.22;;;15.56;100.00
3122;BME280;1571;52.524;14.104;2023-07-31T05:22:37;100421.94;;;15.58;100.00
3122;BME280;1571;52.524;14.104;2023-07-31T05:25:06;100411.13;;;15.59;100.00
3122;BME280;1571;52.524;14.104;2023-07-31T05:27:34;100402.13;;;15.60;100.00
3122;BME280;1571;52.524;14.104;2023-07-31T05:30:03;100406.59;;;15.60;100.00
3122;BME280;1571;52.524;14.104;2023-07-31T05:32:32;100408.63;;;15.68;100.00
3122;BME280;1571;52.524;14.104;2023-07-31T05:35:00;100405.44;;;15.74;100.00
3122;BME280;1571;52.524;14.104;2023-07-31T05:37:42;100405.31;;;15.85;100.00
3122;BME280;1571;52.524;14.104;2023-07-31T05:40:11;100399.78;;;15.77;100.00
3122;BME280;1571;52.524;14.104;2023-07-31T05:42:39;100409.25;;;15.81;100.00
3122;BME280;1571;52.524;14.104;2023-07-31T05:45:08;100405.28;;;15.75;100.00
3122;BME280;1571;52.524;14.104;2023-07-31T05:47:37;100407.28;;;16.02;100.00
3122;BME280;1571;52.524;14.104;2023-07-31T05:50:06;100404.06;;;16.09;100.00
3122;BME280;1571;52.524;14.104;2023-07-31T05:52:34;100407.47;;;16.11;100.00
3122;BME280;1571;52.524;14.104;2023-07-31T05:55:05;100397.28;;;16.05;100.00
3122;BME280;1571;52.524;14.104;2023-07-31T05:57:33;100391.81;;;15.96;100.00
3122;BME280;1571;52.524;14.104;2023-07-31T06:00:02;100382.66;;;16.09;100.00
3122;BME280;1571;52.524;14.104;2023-07-31T06:02:31;100380.56;;;16.12;100.00
3122;BME280;1571;52.524;14.104;2023-07-31T06:05:04;100382.63;;;16.18;100.00
3122;BME280;1571;52.524;14.104;2023-07-31T06:07:33;100377.16;;;16.20;100.00
3122;BME280;1571;52.524;14.104;2023-07-31T06:10:04;100383.50;;;16.19;100.00
3122;BME280;1571;52.524;14.104;2023-07-31T06:12:33;100385.63;;;16.35;100.00
3122;BME280;1571;52.524;14.104;2023-07-31T06:15:02;100380.94;;;16.27;100.00
3122;BME280;1571;52.524;14.104;2023-07-31T06:17:31;100380.53;;;16.22;100.00
3122;BME280;1571;52.524;14.104;2023-07-31T06:19:59;100386.44;;;16.26;100.00
3122;BME280;1571;52.524;14.104;2023-07-31T06:22:27;100393.50;;;16.27;100.00
3122;BME280;1571;52.524;14.104;2023-07-31T06:24:56;100381.94;;;16.36;100.00
3122;BME280;1571;52.524;14.104;2023-07-31T06:27:26;100384.75;;;16.34;100.00
3122;BME280;1571;52.524;14.104;2023-07-31T06:29:54;100386.84;;;16.50;100.00
3122;BME280;1571;52.524;14.104;2023-07-31T06:32:25;100384.06;;;16.42;100.00
3122;BME280;1571;52.524;14.104;2023-07-31T06:34:56;100381.06;;;16.55;100.00
3122;BME280;1571;52.524;14.104;2023-07-31T06:37:24;100373.19;;;16.34;100.00
3122;BME280;1571;52.524;14.104;2023-07-31T06:39:52;100377.88;;;16.41;100.00
3122;BME280;1571;52.524;14.104;2023-07-31T06:42:21;100378.16;;;16.29;100.00
3122;BME280;1571;52.524;14.104;2023-07-31T06:44:51;100375.47;;;16.19;100.00
3122;BME280;1571;52.524;14.104;2023-07-31T06:47:19;100388.72;;;16.11;100.00
3122;BME280;1571;52.524;14.104;2023-07-31T06:49:48;100383.22;;;16.12;100.00
3122;BME280;1571;52.524;14.104;2023-07-31T06:52:17;100389.53;;;16.21;100.00
3122;BME280;1571;52.524;14.104;2023-07-31T06:54:59;100383.91;;;16.43;100.00
3122;BME280;1571;52.524;14.104;2023-07-31T06:57:28;100385.47;;;16.36;100.00
3122;BME280;1571;52.524;14.104;2023-07-31T06:59:57;100379.09;;;16.57;100.00
3122;BME280;1571;52.524;14.104;2023-07-31T07:02:26;100382.91;;;16.54;100.00
3122;BME280;1571;52.524;14.104;2023-07-31T07:04:54;100375.72;;;16.55;100.00
3122;BME280;1571;52.524;14.104;2023-07-31T07:07:22;100376.88;;;16.33;100.00
3122;BME280;1571;52.524;14.104;2023-07-31T07:09:50;100377.41;;;16.36;100.00
3122;BME280;1571;52.524;14.104;2023-07-31T07:12:19;100379.69;;;16.51;100.00
3122;BME280;1571;52.524;14.104;2023-07-31T07:14:47;100372.19;;;16.54;100.00
3122;BME280;1571;52.524;14.104;2023-07-31T07:17:17;100372.34;;;16.53;100.00
3122;BME280;1571;52.524;14.104;2023-07-31T07:19:47;100372.31;;;16.62;100.00
3122;BME280;1571;52.524;14.104;2023-07-31T07:22:16;100378.84;;;16.40;100.00
3122;BME280;1571;52.524;14.104;2023-07-31T07:24:44;100370.06;;;16.58;100.00
3122;BME280;1571;52.524;14.104;2023-07-31T07:27:12;100371.47;;;16.52;100.00
3122;BME280;1571;52.524;14.104;2023-07-31T07:29:41;100365.84;;;16.55;100.00
3122;BME280;1571;52.524;14.104;2023-07-31T07:32:10;100367.00;;;16.53;100.00
3122;BME280;1571;52.524;14.104;2023-07-31T07:34:40;100357.22;;;16.71;100.00
3122;BME280;1571;52.524;14.104;2023-07-31T07:37:08;100356.25;;;16.82;100.00
3122;BME280;1571;52.524;14.104;2023-07-31T07:39:36;100347.47;;;16.70;100.00
3122;BME280;1571;52.524;14.104;2023-07-31T07:42:05;100359.34;;;16.58;100.00
3122;BME280;1571;52.524;14.104;2023-07-31T07:44:33;100361.59;;;16.62;100.00
3122;BME280;1571;52.524;14.104;2023-07-31T07:47:02;100363.16;;;16.65;100.00
3122;BME280;1571;52.524;14.104;2023-07-31T07:49:30;100358.25;;;16.31;100.00
3122;BME280;1571;52.524;14.104;2023-07-31T07:52:00;100361.78;;;16.41;100.00
3122;BME280;1571;52.524;14.104;2023-07-31T07:54:28;100358.66;;;16.36;100.00
3122;BME280;1571;52.524;14.104;2023-07-31T07:56:56;100361.63;;;16.53;100.00
3122;BME280;1571;52.524;14.104;2023-07-31T07:59:25;100358.38;;;16.49;100.00
3122;BME280;1571;52.524;14.104;2023-07-31T08:01:53;100352.00;;;16.70;100.00
3122;BME280;1571;52.524;14.104;2023-07-31T08:04:21;100348.34;;;16.80;100.00
3122;BME280;1571;52.524;14.104;2023-07-31T08:06:49;100347.16;;;16.93;100.00
3122;BME280;1571;52.524;14.104;2023-07-31T08:09:19;100340.91;;;17.02;100.00
3122;BME280;1571;52.524;14.104;2023-07-31T08:11:47;100334.06;;;17.17;100.00
3122;BME280;1571;52.524;14.104;2023-07-31T08:14:16;100324.44;;;17.24;100.00
3122;BME280;1571;52.524;14.104;2023-07-31T08:16:44;100332.25;;;17.45;100.00
3122;BME280;1571;52.524;14.104;2023-07-31T08:19:12;100321.53;;;17.36;100.00
3122;BME280;1571;52.524;14.104;2023-07-31T08:21:41;100316.91;;;17.56;100.00
3122;BME280;1571;52.524;14.104;2023-07-31T08:24:09;100307.25;;;17.91;100.00
3122;BME280;1571;52.524;14.104;2023-07-31T08:26:39;100307.38;;;18.07;100.00
3122;BME280;1571;52.524;14.104;2023-07-31T08:29:08;100301.78;;;18.00;100.00
3122;BME280;1571;52.524;14.104;2023-07-31T08:31:37;100311.91;;;17.88;100.00
3122;BME280;1571;52.524;14.104;2023-07-31T08:34:05;100314.75;;;17.87;100.00
3122;BME280;1571;52.524;14.104;2023-07-31T08:36:33;100318.59;;;18.02;100.00
3122;BME280;1571;52.524;14.104;2023-07-31T08:39:01;100312.53;;;18.00;100.00
3122;BME280;1571;52.524;14.104;2023-07-31T08:41:31;100307.06;;;18.10;100.00
3122;BME280;1571;52.524;14.104;2023-07-31T08:44:00;100307.91;;;18.28;100.00
3122;BME280;1571;52.524;14.104;2023-07-31T08:46:29;100295.22;;;18.21;100.00
3122;BME280;1571;52.524;14.104;2023-07-31T08:48:59;100298.16;;;18.09;100.00
3122;BME280;1571;52.524;14.104;2023-07-31T08:51:27;100301.22;;;18.15;100.00
3122;BME280;1571;52.524;14.104;2023-07-31T08:53:56;100299.03;;;18.36;100.00
3122;BME280;1571;52.524;14.104;2023-07-31T08:56:25;100282.25;;;18.16;100.00
3122;BME280;1571;52.524;14.104;2023-07-31T08:58:55;100285.75;;;18.08;100.00
3122;BME280;1571;52.524;14.104;2023-07-31T09:01:25;100288.56;;;18.07;100.00
3122;BME280;1571;52.524;14.104;2023-07-31T09:03:54;100290.34;;;17.98;100.00
3122;BME280;1571;52.524;14.104;2023-07-31T09:06:24;100279.44;;;18.18;100.00
3122;BME280;1571;52.524;14.104;2023-07-31T09:08:55;100275.44;;;18.48;100.00
3122;BME280;1571;52.524;14.104;2023-07-31T09:11:24;100273.09;;;19.13;99.76
3122;BME280;1571;52.524;14.104;2023-07-31T09:13:53;100275.16;;;19.20;98.06
3122;BME280;1571;52.524;14.104;2023-07-31T09:16:29;100275.09;;;19.11;97.53
3122;BME280;1571;52.524;14.104;2023-07-31T09:18:59;100278.53;;;19.22;97.97
3122;BME280;1571;52.524;14.104;2023-07-31T09:21:29;100276.25;;;19.01;97.37
3122;BME280;1571;52.524;14.104;2023-07-31T09:23:57;100283.28;;;18.67;98.47
3122;BME280;1571;52.524;14.104;2023-07-31T09:26:30;100282.03;;;18.54;98.74
3122;BME280;1571;52.524;14.104;2023-07-31T09:28:59;100291.66;;;18.38;99.84
3122;BME280;1571;52.524;14.104;2023-07-31T09:31:40;100288.91;;;18.30;100.00
3122;BME280;1571;52.524;14.104;2023-07-31T09:34:09;100286.97;;;18.40;99.94
3122;BME280;1571;52.524;14.104;2023-07-31T09:36:41;100288.50;;;18.43;100.00
3122;BME280;1571;52.524;14.104;2023-07-31T09:39:11;100282.94;;;18.62;99.03
3122;BME280;1571;52.524;14.104;2023-07-31T09:41:43;100291.56;;;18.74;98.59
3122;BME280;1571;52.524;14.104;2023-07-31T09:44:11;100283.13;;;18.69;99.07
3122;BME280;1571;52.524;14.104;2023-07-31T09:46:41;100276.56;;;18.98;98.31
3122;BME280;1571;52.524;14.104;2023-07-31T09:49:12;100277.91;;;19.44;96.82
3122;BME280;1571;52.524;14.104;2023-07-31T09:51:41;100275.97;;;19.12;96.59
3122;BME280;1571;52.524;14.104;2023-07-31T09:54:11;100275.53;;;18.90;96.27
3122;BME280;1571;52.524;14.104;2023-07-31T09:56:42;100276.91;;;18.95;95.44
3122;BME280;1571;52.524;14.104;2023-07-31T09:59:13;100266.78;;;19.31;95.77
3122;BME280;1571;52.524;14.104;2023-07-31T10:01:45;100281.44;;;19.37;95.92
3122;BME280;1571;52.524;14.104;2023-07-31T10:04:14;100279.56;;;19.45;95.91
3122;BME280;1571;52.524;14.104;2023-07-31T10:06:43;100280.44;;;19.54;94.72
3122;BME280;1571;52.524;14.104;2023-07-31T10:09:15;100276.09;;;19.61;94.20
3122;BME280;1571;52.524;14.104;2023-07-31T10:11:47;100279.88;;;19.34;95.01
3122;BME280;1571;52.524;14.104;2023-07-31T10:14:19;100266.88;;;19.13;95.28
3122;BME280;1571;52.524;14.104;2023-07-31T10:16:49;100264.53;;;19.10;95.05
3122;BME280;1571;52.524;14.104;2023-07-31T10:19:18;100261.16;;;19.16;95.01
3122;BME280;1571;52.524;14.104;2023-07-31T10:21:48;100266.81;;;18.62;94.02
3122;BME280;1571;52.524;14.104;2023-07-31T10:24:16;100267.63;;;18.37;94.83
3122;BME280;1571;52.524;14.104;2023-07-31T10:26:46;100277.44;;;18.20;96.63
3122;BME280;1571;52.524;14.104;2023-07-31T10:29:17;100266.38;;;18.23;98.76
3122;BME280;1571;52.524;14.104;2023-07-31T10:31:46;100278.44;;;18.01;100.00
3122;BME280;1571;52.524;14.104;2023-07-31T10:34:17;100268.91;;;18.24;100.00
3122;BME280;1571;52.524;14.104;2023-07-31T10:36:45;100271.28;;;18.54;100.00
3122;BME280;1571;52.524;14.104;2023-07-31T10:39:33;100249.22;;;18.76;100.00
3122;BME280;1571;52.524;14.104;2023-07-31T10:42:10;100258.16;;;19.19;99.08
3122;BME280;1571;52.524;14.104;2023-07-31T10:44:43;100247.13;;;19.47;96.88
3122;BME280;1571;52.524;14.104;2023-07-31T10:47:14;100245.19;;;19.82;94.08
3122;BME280;1571;52.524;14.104;2023-07-31T10:49:46;100249.16;;;19.53;92.10
3122;BME280;1571;52.524;14.104;2023-07-31T10:52:19;100253.00;;;19.42;91.45
3122;BME280;1571;52.524;14.104;2023-07-31T10:55:13;100245.19;;;19.73;89.77
3122;BME280;1571;52.524;14.104;2023-07-31T10:57:44;100243.06;;;19.43;90.75
3122;BME280;1571;52.524;14.104;2023-07-31T11:00:21;100240.88;;;19.38;90.33
3122;BME280;1571;52.524;14.104;2023-07-31T11:03:00;100251.47;;;18.89;91.89
3122;BME280;1571;52.524;14.104;2023-07-31T11:05:48;100241.41;;;19.42;91.12
3122;BME280;1571;52.524;14.104;2023-07-31T11:08:18;100246.25;;;19.30;91.44
3122;BME280;1571;52.524;14.104;2023-07-31T11:10:49;100238.53;;;19.51;91.20
3122;BME280;1571;52.524;14.104;2023-07-31T11:13:18;100247.41;;;19.19;91.63
3122;BME280;1571;52.524;14.104;2023-07-31T11:15:46;100251.75;;;19.12;93.29
3122;BME280;1571;52.524;14.104;2023-07-31T11:18:15;100244.41;;;18.54;97.77
3122;BME280;1571;52.524;14.104;2023-07-31T11:20:44;100248.34;;;18.41;100.00
3122;BME280;1571;52.524;14.104;2023-07-31T11:23:16;100232.88;;;18.35;100.00
3122;BME280;1571;52.524;14.104;2023-07-31T11:25:44;100224.09;;;18.59;100.00
3122;BME280;1571;52.524;14.104;2023-07-31T11:28:14;100228.53;;;19.11;100.00
3122;BME280;1571;52.524;14.104;2023-07-31T11:30:44;100224.97;;;19.78;100.00
3122;BME280;1571;52.524;14.104;2023-07-31T11:33:13;100195.06;;;20.61;98.97
3122;BME280;1571;52.524;14.104;2023-07-31T11:35:44;100191.31;;;21.02;95.29
3122;BME280;1571;52.524;14.104;2023-07-31T11:38:21;100175.84;;;20.95;91.44
3122;BME280;1571;52.524;14.104;2023-07-31T11:40:53;100185.78;;;20.64;90.13
3122;BME280;1571;52.524;14.104;2023-07-31T11:43:23;100185.28;;;20.91;87.69
3122;BME280;1571;52.524;14.104;2023-07-31T11:45:53;100185.25;;;21.31;86.76
3122;BME280;1571;52.524;14.104;2023-07-31T11:48:23;100179.31;;;21.35;84.38
3122;BME280;1571;52.524;14.104;2023-07-31T11:50:56;100171.50;;;21.87;81.91
3122;BME280;1571;52.524;14.104;2023-07-31T11:53:28;100166.53;;;21.52;80.21
3122;BME280;1571;52.524;14.104;2023-07-31T11:56:00;100179.56;;;20.94;81.33
3122;BME280;1571;52.524;14.104;2023-07-31T11:58:30;100171.34;;;20.88;81.09
3122;BME280;1571;52.524;14.104;2023-07-31T12:00:59;100169.31;;;20.90;80.67
3122;BME280;1571;52.524;14.104;2023-07-31T12:03:28;100166.38;;;20.99;81.80
3122;BME280;1571;52.524;14.104;2023-07-31T12:05:58;100169.56;;;20.72;81.83
3122;BME280;1571;52.524;14.104;2023-07-31T12:08:28;100167.69;;;20.72;80.79
3122;BME280;1571;52.524;14.104;2023-07-31T12:11:02;100178.63;;;20.79;83.17
3122;BME280;1571;52.524;14.104;2023-07-31T12:13:32;100176.91;;;20.86;81.46
3122;BME280;1571;52.524;14.104;2023-07-31T12:16:03;100168.81;;;21.17;82.10
3122;BME280;1571;52.524;14.104;2023-07-31T12:18:34;100160.09;;;20.76;81.83
3122;BME280;1571;52.524;14.104;2023-07-31T12:21:05;100162.53;;;20.54;81.86
3122;BME280;1571;52.524;14.104;2023-07-31T12:23:36;100167.72;;;20.64;81.50
3122;BME280;1571;52.524;14.104;2023-07-31T12:26:09;100159.81;;;20.94;81.00
3122;BME280;1571;52.524;14.104;2023-07-31T12:28:39;100166.28;;;21.16;79.72
3122;BME280;1571;52.524;14.104;2023-07-31T12:31:10;100163.16;;;21.04;79.81
3122;BME280;1571;52.524;14.104;2023-07-31T12:33:40;100145.63;;;21.00;77.81
3122;BME280;1571;52.524;14.104;2023-07-31T12:36:11;100161.63;;;20.70;78.79
3122;BME280;1571;52.524;14.104;2023-07-31T12:38:41;100156.94;;;20.64;78.35
3122;BME280;1571;52.524;14.104;2023-07-31T12:41:10;100143.66;;;20.54;79.26
3122;BME280;1571;52.524;14.104;2023-07-31T12:43:39;100151.44;;;20.41;80.42
3122;BME280;1571;52.524;14.104;2023-07-31T12:46:08;100159.06;;;20.29;82.03
3122;BME280;1571;52.524;14.104;2023-07-31T12:48:38;100165.66;;;20.27;81.53
3122;BME280;1571;52.524;14.104;2023-07-31T12:51:07;100151.88;;;20.05;80.35
3122;BME280;1571;52.524;14.104;2023-07-31T12:53:35;100152.56;;;20.07;81.54
3122;BME280;1571;52.524;14.104;2023-07-31T12:56:05;100154.91;;;20.10;81.54
3122;BME280;1571;52.524;14.104;2023-07-31T12:58:33;100155.75;;;20.67;81.36
3122;BME280;1571;52.524;14.104;2023-07-31T13:01:01;100146.72;;;21.14;78.89
3122;BME280;1571;52.524;14.104;2023-07-31T13:03:30;100141.31;;;21.14;77.92
3122;BME280;1571;52.524;14.104;2023-07-31T13:09:23;100129.56;;;21.76;75.38
3122;BME280;1571;52.524;14.104;2023-07-31T13:11:53;100130.44;;;21.68;75.27